createdAt,value
2017-02-22T04:00:38.360Z,1000.19
2017-02-22T04:01:03.934Z,1000.31
2017-02-22T04:01:29.525Z,1000.27
2017-02-22T04:01:55.080Z,1000.21
2017-02-22T04:02:20.651Z,1000.22
2017-02-22T04:02:46.199Z,1000.14
2017-02-22T04:03:11.748Z,1000.08
2017-02-22T04:03:37.305Z,1000.31
2017-02-22T04:04:02.850Z,1000.16
2017-02-22T04:04:28.392Z,1000.31
2017-02-22T04:04:54.050Z,1000.12
2017-02-22T04:05:19.596Z,1000.15
2017-02-22T04:05:45.142Z,1000.21
2017-02-22T04:06:10.713Z,1000.18
2017-02-22T04:06:36.383Z,1000.2
2017-02-22T04:07:01.949Z,1000.02
2017-02-22T04:07:27.534Z,1000.05
2017-02-22T04:07:53.102Z,1000.1
2017-02-22T04:08:18.663Z,1000.21
2017-02-22T04:08:44.238Z,1000.25
2017-02-22T04:09:09.814Z,1000.15
2017-02-22T04:09:35.381Z,1000.2
2017-02-22T04:10:00.958Z,1000.21
2017-02-22T04:10:26.516Z,1000.08
2017-02-22T04:10:52.072Z,1000.2
2017-02-22T04:11:17.629Z,1000.23
2017-02-22T04:11:43.193Z,1000.26
2017-02-22T04:12:08.753Z,1000.23
2017-02-22T04:12:34.313Z,1000.16
2017-02-22T04:12:59.880Z,1000.27
2017-02-22T04:13:25.507Z,1000.29
2017-02-22T04:13:51.070Z,1000.2
2017-02-22T04:14:16.741Z,1000.22
2017-02-22T04:14:42.353Z,1000.28
2017-02-22T04:15:07.997Z,1000.18
2017-02-22T04:15:33.565Z,1000.24
2017-02-22T04:15:59.136Z,1000.14
2017-02-22T04:16:24.854Z,1000.1
2017-02-22T04:16:50.416Z,1000.07
2017-02-22T04:17:15.985Z,1000.08
2017-02-22T04:17:41.553Z,1000.15
2017-02-22T04:18:07.119Z,1000.24
2017-02-22T04:18:32.675Z,1000.17
2017-02-22T04:18:58.254Z,1000.16
2017-02-22T04:19:23.870Z,1000.14
2017-02-22T04:19:49.452Z,1000.11
2017-02-22T04:20:15.021Z,1000.09
2017-02-22T04:20:40.591Z,1000.14
2017-02-22T04:21:06.153Z,1000.12
2017-02-22T04:21:31.711Z,1000.12
2017-02-22T04:21:57.282Z,1000.17
2017-02-22T04:22:22.835Z,1000.2
2017-02-22T04:22:48.484Z,1000.13
2017-02-22T04:23:14.107Z,1000.16
2017-02-22T04:23:39.676Z,1000.19
2017-02-22T04:24:05.229Z,1000.05
2017-02-22T04:24:30.811Z,1000.01
2017-02-22T04:24:56.379Z,1000.03
2017-02-22T04:25:21.952Z,1000.07
2017-02-22T04:25:47.516Z,1000.07
2017-02-22T04:26:13.076Z,1000.11
2017-02-22T04:26:38.650Z,999.99
2017-02-22T04:27:04.310Z,1000.04
2017-02-22T04:27:29.874Z,999.88
2017-02-22T04:27:55.528Z,999.85
2017-02-22T04:28:21.094Z,999.88
2017-02-22T04:28:46.655Z,999.84
2017-02-22T04:29:12.230Z,999.91
2017-02-22T04:29:37.803Z,999.9
2017-02-22T04:30:03.354Z,999.92
2017-02-22T04:30:28.917Z,999.97
2017-02-22T04:30:54.504Z,999.94
2017-02-22T04:31:20.071Z,999.98
2017-02-22T04:31:45.634Z,1000.01
2017-02-22T04:32:11.311Z,999.95
2017-02-22T04:32:36.887Z,999.93
2017-02-22T04:33:02.534Z,1000.05
2017-02-22T04:33:28.101Z,1000
2017-02-22T04:33:53.678Z,999.92
2017-02-22T04:34:19.337Z,999.96
2017-02-22T04:34:44.905Z,1000
2017-02-22T04:35:10.486Z,1000.05
2017-02-22T04:35:36.046Z,999.99
2017-02-22T04:36:01.611Z,999.76
2017-02-22T04:36:27.161Z,999.88
2017-02-22T04:36:52.760Z,1000.02
2017-02-22T04:37:18.321Z,1000.01
2017-02-22T04:37:43.886Z,999.87
2017-02-22T04:38:09.452Z,999.81
2017-02-22T04:38:35.084Z,999.84
2017-02-22T04:39:00.663Z,999.91
2017-02-22T04:39:26.235Z,999.94
2017-02-22T04:39:51.851Z,999.84
2017-02-22T04:40:17.417Z,999.82
2017-02-22T04:40:42.964Z,999.85
2017-02-22T04:41:08.550Z,999.85
2017-02-22T04:41:34.125Z,999.91
2017-02-22T04:41:59.679Z,999.89
2017-02-22T04:42:25.253Z,999.83
2017-02-22T04:42:50.815Z,999.84
2017-02-22T04:43:16.372Z,999.86
2017-02-22T04:43:42.043Z,999.99
2017-02-22T04:44:07.605Z,999.87
2017-02-22T04:44:33.161Z,999.79
2017-02-22T04:44:58.733Z,999.86
2017-02-22T04:45:24.303Z,999.9
2017-02-22T04:45:49.860Z,999.94
2017-02-22T04:46:15.419Z,999.91
2017-02-22T04:46:40.969Z,999.83
2017-02-22T04:47:49.636Z,999.86
2017-02-22T04:48:15.219Z,999.9
2017-02-22T04:48:40.811Z,999.86
2017-02-22T04:49:06.360Z,999.92
2017-02-22T04:49:31.927Z,999.92
2017-02-22T04:49:57.568Z,999.89
2017-02-22T04:50:23.135Z,999.91
2017-02-22T04:50:48.709Z,999.63
2017-02-22T04:51:14.354Z,999.83
2017-02-22T04:51:39.910Z,999.89
2017-02-22T04:52:05.482Z,999.82
2017-02-22T04:52:31.063Z,999.75
2017-02-22T04:52:56.605Z,999.74
2017-02-22T04:53:22.140Z,999.8
2017-02-22T04:53:47.686Z,999.79
2017-02-22T04:54:13.252Z,999.85
2017-02-22T04:54:38.826Z,999.87
2017-02-22T04:55:04.386Z,999.74
2017-02-22T04:55:29.967Z,999.75
2017-02-22T04:55:55.535Z,999.72
2017-02-22T04:56:21.167Z,999.56
2017-02-22T04:56:46.748Z,999.72
2017-02-22T04:57:12.324Z,999.46
2017-02-22T04:57:37.882Z,999.76
2017-02-22T04:58:03.453Z,999.66
2017-02-22T04:58:29.022Z,999.66
2017-02-22T04:58:54.583Z,999.67
2017-02-22T04:59:20.238Z,999.66
2017-02-22T04:59:45.814Z,999.76
2017-02-22T05:00:11.434Z,999.7
2017-02-22T05:00:36.989Z,999.58
2017-02-22T05:01:02.558Z,999.73
2017-02-22T05:01:28.111Z,999.75
2017-02-22T05:01:53.673Z,999.69
2017-02-22T05:02:19.232Z,999.71
2017-02-22T05:02:44.895Z,999.64
2017-02-22T05:03:10.492Z,999.67
2017-02-22T05:03:36.043Z,999.61
2017-02-22T05:04:01.603Z,999.62
2017-02-22T05:04:27.175Z,999.66
2017-02-22T05:04:52.721Z,999.74
2017-02-22T05:05:18.287Z,999.62
2017-02-22T05:05:43.854Z,999.58
2017-02-22T05:06:09.418Z,999.62
2017-02-22T05:06:34.980Z,999.61
2017-02-22T05:07:00.537Z,999.61
2017-02-22T05:07:26.112Z,999.62
2017-02-22T05:07:51.679Z,999.58
2017-02-22T05:08:17.237Z,999.53
2017-02-22T05:08:42.793Z,999.57
2017-02-22T05:09:08.383Z,999.55
2017-02-22T05:09:33.948Z,999.58
2017-02-22T05:09:59.671Z,999.61
2017-02-22T05:10:25.243Z,999.34
2017-02-22T05:10:50.808Z,999.45
2017-02-22T05:11:16.455Z,999.49
2017-02-22T05:11:42.054Z,999.53
2017-02-22T05:12:07.640Z,999.48
2017-02-22T05:12:33.193Z,999.54
2017-02-22T05:12:58.864Z,999.5
2017-02-22T05:13:24.444Z,999.39
2017-02-22T05:13:50.064Z,999.39
2017-02-22T05:14:15.623Z,999.38
2017-02-22T05:14:41.183Z,999.5
2017-02-22T05:15:06.761Z,999.11
2017-02-22T05:15:32.320Z,999.29
2017-02-22T05:15:57.877Z,999.32
2017-02-22T05:16:23.462Z,999.4
2017-02-22T05:16:49.023Z,999.37
2017-02-22T05:17:14.589Z,999.34
2017-02-22T05:17:40.142Z,999.34
2017-02-22T05:18:05.710Z,999.39
2017-02-22T05:18:31.294Z,999.39
2017-02-22T05:18:56.882Z,999.41
2017-02-22T05:19:22.550Z,999.42
2017-02-22T05:19:48.125Z,999.48
2017-02-22T05:20:13.682Z,999.47
2017-02-22T05:20:39.231Z,999.4
2017-02-22T05:21:04.796Z,999.34
2017-02-22T05:21:30.373Z,999.34
2017-02-22T05:22:49.234Z,999.4
2017-02-22T05:23:14.801Z,999.35
2017-02-22T05:23:40.364Z,999.29
2017-02-22T05:24:05.933Z,999.37
2017-02-22T05:24:31.539Z,999.33
2017-02-22T05:24:57.091Z,999.37
2017-02-22T05:25:22.645Z,999.29
2017-02-22T05:25:48.208Z,999.24
2017-02-22T05:26:13.765Z,999.41
2017-02-22T05:26:39.325Z,999.34
2017-02-22T05:27:04.998Z,999.3
2017-02-22T05:27:30.572Z,999.42
2017-02-22T05:27:56.132Z,999.38
2017-02-22T05:28:21.691Z,999.35
2017-02-22T05:28:47.252Z,999.4
2017-02-22T05:29:12.831Z,999.42
2017-02-22T05:29:38.393Z,999.44
2017-02-22T05:30:04.125Z,999.14
2017-02-22T05:30:29.683Z,999.35
2017-02-22T05:30:55.295Z,999.25
2017-02-22T05:31:20.952Z,999.4
2017-02-22T05:31:46.512Z,999.21
2017-02-22T05:32:12.073Z,999.26
2017-02-22T05:32:37.651Z,999.3
2017-02-22T05:33:03.202Z,999.33
2017-02-22T05:33:28.766Z,999.34
2017-02-22T05:33:54.314Z,999.37
2017-02-22T05:34:19.902Z,999.31
2017-02-22T05:34:45.468Z,999.27
2017-02-22T05:35:11.095Z,999.36
2017-02-22T05:35:36.674Z,999.32
2017-02-22T05:36:02.242Z,999.25
2017-02-22T05:36:27.896Z,999.2
2017-02-22T05:36:53.481Z,999.17
2017-02-22T05:37:19.036Z,999.3
2017-02-22T05:37:44.682Z,999.23
2017-02-22T05:38:10.241Z,999.33
2017-02-22T05:38:35.813Z,999.28
2017-02-22T05:39:01.483Z,999.26
2017-02-22T05:39:27.108Z,999.22
2017-02-22T05:39:52.674Z,999.22
2017-02-22T05:40:18.256Z,999.17
2017-02-22T05:40:43.961Z,999.21
2017-02-22T05:41:09.531Z,999.22
2017-02-22T05:41:35.155Z,999.2
2017-02-22T05:42:00.710Z,999.27
2017-02-22T05:42:26.362Z,999.28
2017-02-22T05:42:51.949Z,999.32
2017-02-22T05:43:17.543Z,999.15
2017-02-22T05:43:43.104Z,999.2
2017-02-22T05:44:08.669Z,999.12
2017-02-22T05:44:34.225Z,999.19
2017-02-22T05:44:59.932Z,999.18
2017-02-22T05:45:25.491Z,999.12
2017-02-22T05:45:51.050Z,999.16
2017-02-22T05:46:16.679Z,999.12
2017-02-22T05:46:42.305Z,999.19
2017-02-22T05:47:07.858Z,999.13
2017-02-22T05:47:33.490Z,999.11
2017-02-22T05:47:59.154Z,999.25
2017-02-22T05:48:24.731Z,999.13
2017-02-22T05:48:50.280Z,999.12
2017-02-22T05:49:15.859Z,999.06
2017-02-22T05:49:41.433Z,999.04
2017-02-22T05:50:07.006Z,999.19
2017-02-22T05:50:32.612Z,999.03
2017-02-22T05:50:58.169Z,999.12
2017-02-22T05:51:23.747Z,999.14
2017-02-22T05:51:49.323Z,999.12
2017-02-22T05:52:14.891Z,998.88
2017-02-22T05:52:40.589Z,999.07
2017-02-22T05:53:06.186Z,999.11
2017-02-22T05:53:31.736Z,999.04
2017-02-22T05:53:57.309Z,999.14
2017-02-22T05:54:22.941Z,999.17
2017-02-22T05:54:48.513Z,999.17
2017-02-22T05:55:14.072Z,999.04
2017-02-22T05:55:39.719Z,999.12
2017-02-22T05:56:05.281Z,999.05
2017-02-22T05:56:30.842Z,999.14
2017-02-22T05:56:56.492Z,999.14
2017-02-22T05:57:22.110Z,999.13
2017-02-22T05:57:47.671Z,998.98
2017-02-22T05:58:13.224Z,999.11
2017-02-22T05:58:38.798Z,999.13
2017-02-22T05:59:04.380Z,999.12
2017-02-22T05:59:29.942Z,999.15
2017-02-22T05:59:55.529Z,999.15
2017-02-22T06:00:21.073Z,999.03
2017-02-22T06:00:46.647Z,999.09
2017-02-22T06:01:12.238Z,999.11
2017-02-22T06:01:37.803Z,999.01
2017-02-22T06:02:03.464Z,999.09
2017-02-22T06:02:29.018Z,999.08
2017-02-22T06:02:54.574Z,999.08
2017-02-22T06:03:20.169Z,999.06
2017-02-22T06:03:45.840Z,999.09
2017-02-22T06:04:11.397Z,999.1
2017-02-22T06:04:36.965Z,999.15
2017-02-22T06:05:02.537Z,999.04
2017-02-22T06:05:28.106Z,999.07
2017-02-22T06:05:53.689Z,999.09
2017-02-22T06:06:19.251Z,999.12
2017-02-22T06:06:44.816Z,999.13
2017-02-22T06:07:10.367Z,999.09
2017-02-22T06:07:35.942Z,999.19
2017-02-22T06:08:01.504Z,999.14
2017-02-22T06:08:27.113Z,999.06
2017-02-22T06:09:25.615Z,999.02
2017-02-22T06:09:51.287Z,998.86
2017-02-22T06:10:16.850Z,999.05
2017-02-22T06:10:42.419Z,999
2017-02-22T06:11:07.975Z,999
2017-02-22T06:11:33.579Z,999.1
2017-02-22T06:11:59.244Z,999.03
2017-02-22T06:12:24.809Z,998.96
2017-02-22T06:12:50.371Z,998.93
2017-02-22T06:13:15.956Z,999.1
2017-02-22T06:13:41.523Z,999.07
2017-02-22T06:14:07.105Z,998.99
2017-02-22T06:14:32.685Z,999.08
2017-02-22T06:14:58.272Z,999.09
2017-02-22T06:15:23.850Z,999.11
2017-02-22T06:15:49.392Z,999.17
2017-02-22T06:16:14.966Z,999.1
2017-02-22T06:16:40.523Z,999.12
2017-02-22T06:17:06.105Z,999.1
2017-02-22T06:17:31.665Z,998.91
2017-02-22T06:17:57.231Z,999.03
2017-02-22T06:18:22.813Z,999.19
2017-02-22T06:18:48.362Z,999.08
2017-02-22T06:19:13.940Z,999.16
2017-02-22T06:19:39.491Z,999.22
2017-02-22T06:20:05.030Z,999.16
2017-02-22T06:20:30.707Z,999.12
2017-02-22T06:20:56.247Z,999.09
2017-02-22T06:21:21.785Z,999.19
2017-02-22T06:21:47.334Z,999.13
2017-02-22T06:22:12.875Z,999.12
2017-02-22T06:22:38.437Z,999.13
2017-02-22T06:23:04.087Z,998.98
2017-02-22T06:23:29.661Z,999.06
2017-02-22T06:23:55.214Z,999.14
2017-02-22T06:24:20.775Z,999.13
2017-02-22T06:24:46.436Z,999.18
2017-02-22T06:25:11.987Z,999.18
2017-02-22T06:25:37.561Z,999.15
2017-02-22T06:26:03.126Z,999.15
2017-02-22T06:26:28.703Z,999.14
2017-02-22T06:26:54.269Z,999.16
2017-02-22T06:27:19.810Z,999.04
2017-02-22T06:27:45.366Z,998.94
2017-02-22T06:28:11.043Z,999.04
2017-02-22T06:28:36.606Z,999.08
2017-02-22T06:29:02.169Z,999.06
2017-02-22T06:29:27.798Z,999.08
2017-02-22T06:29:53.363Z,999.14
2017-02-22T06:30:18.908Z,999.12
2017-02-22T06:30:44.467Z,999.12
2017-02-22T06:31:10.246Z,999.13
2017-02-22T06:31:35.824Z,999.12
2017-02-22T06:32:01.369Z,999.16
2017-02-22T06:32:26.947Z,999.15
2017-02-22T06:32:52.492Z,999.2
2017-02-22T06:33:18.055Z,999.08
2017-02-22T06:33:43.622Z,999.23
2017-02-22T06:34:09.176Z,999.11
2017-02-22T06:34:34.743Z,999
2017-02-22T06:35:00.361Z,999
2017-02-22T06:35:25.927Z,999.01
2017-02-22T06:35:51.484Z,999.09
2017-02-22T06:36:17.049Z,999.11
2017-02-22T06:36:42.607Z,999.07
2017-02-22T06:37:08.240Z,999.12
2017-02-22T06:37:33.812Z,999.06
2017-02-22T06:37:59.402Z,999.1
2017-02-22T06:38:25.039Z,999.1
2017-02-22T06:38:50.593Z,999.11
2017-02-22T06:39:16.148Z,999.07
2017-02-22T06:39:41.812Z,998.96
2017-02-22T06:40:07.376Z,999.15
2017-02-22T06:40:32.922Z,999.15
2017-02-22T06:40:58.474Z,999.21
2017-02-22T06:41:24.067Z,999.22
2017-02-22T06:41:49.609Z,999.21
2017-02-22T06:42:15.159Z,999.12
2017-02-22T06:42:40.730Z,999.14
2017-02-22T06:43:06.278Z,999.19
2017-02-22T06:43:31.849Z,999.15
2017-02-22T06:43:57.418Z,999.2
2017-02-22T06:44:22.998Z,999.2
2017-02-22T06:44:48.582Z,999.26
2017-02-22T06:45:14.146Z,999.2
2017-02-22T06:45:39.750Z,999.22
2017-02-22T06:46:05.342Z,999.23
2017-02-22T06:46:30.919Z,999.21
2017-02-22T06:46:56.484Z,999.21
2017-02-22T06:47:22.161Z,999.19
2017-02-22T06:47:47.731Z,999.15
2017-02-22T06:48:13.302Z,999.15
2017-02-22T06:48:38.892Z,999.23
2017-02-22T06:49:04.538Z,999.22
2017-02-22T06:49:30.119Z,999.23
2017-02-22T06:49:55.789Z,999.22
2017-02-22T06:50:21.403Z,999.23
2017-02-22T06:50:46.980Z,999.2
2017-02-22T06:51:12.556Z,999.28
2017-02-22T06:51:38.132Z,999.22
2017-02-22T06:52:03.691Z,999.21
2017-02-22T06:52:29.317Z,999.2
2017-02-22T06:52:54.911Z,999.25
2017-02-22T06:53:20.526Z,999.26
2017-02-22T06:53:46.081Z,999.25
2017-02-22T06:54:11.618Z,999.33
2017-02-22T06:54:37.225Z,999.21
2017-02-22T06:55:02.747Z,999.22
2017-02-22T06:55:28.300Z,999.25
2017-02-22T06:55:53.867Z,999.29
2017-02-22T06:56:19.440Z,999.17
2017-02-22T06:56:45.143Z,999.23
2017-02-22T06:57:10.702Z,999.19
2017-02-22T06:57:36.264Z,999.23
2017-02-22T06:58:01.906Z,999.26
2017-02-22T06:58:27.480Z,999.21
2017-02-22T06:58:53.032Z,999.25
2017-02-22T06:59:18.611Z,999.2
2017-02-22T06:59:44.175Z,999.28
2017-02-22T07:00:09.736Z,999.29
2017-02-22T07:01:13.195Z,999.29
2017-02-22T07:01:38.761Z,999.24
2017-02-22T07:02:04.355Z,999.27
2017-02-22T07:02:29.946Z,999.28
2017-02-22T07:02:55.507Z,999.37
2017-02-22T07:03:21.182Z,999.32
2017-02-22T07:03:46.728Z,999.28
2017-02-22T07:04:12.313Z,999.26
2017-02-22T07:04:37.906Z,999.22
2017-02-22T07:05:03.468Z,999.19
2017-02-22T07:05:29.043Z,999.16
2017-02-22T07:05:54.715Z,999.14
2017-02-22T07:06:20.297Z,999.19
2017-02-22T07:06:45.870Z,999.21
2017-02-22T07:07:11.514Z,999.34
2017-02-22T07:07:37.147Z,999.2
2017-02-22T07:08:02.701Z,999.17
2017-02-22T07:08:28.267Z,999.24
2017-02-22T07:08:53.842Z,999.15
2017-02-22T07:09:19.410Z,999.21
2017-02-22T07:09:44.972Z,999.26
2017-02-22T07:10:10.536Z,999.23
2017-02-22T07:10:36.088Z,999.2
2017-02-22T07:11:01.653Z,999.2
2017-02-22T07:11:27.359Z,999.16
2017-02-22T07:11:53.095Z,999.23
2017-02-22T07:12:18.636Z,999.23
2017-02-22T07:12:44.199Z,999.31
2017-02-22T07:13:09.789Z,999.1
2017-02-22T07:13:35.358Z,999.19
2017-02-22T07:14:00.907Z,999.33
2017-02-22T07:14:26.491Z,999.28
2017-02-22T07:14:52.052Z,999.33
2017-02-22T07:15:17.673Z,999.32
2017-02-22T07:15:43.220Z,999.19
2017-02-22T07:16:08.790Z,999.14
2017-02-22T07:16:34.413Z,999.25
2017-02-22T07:16:59.988Z,999.19
2017-02-22T07:17:25.535Z,999.11
2017-02-22T07:17:51.104Z,999.21
2017-02-22T07:18:16.659Z,999.24
2017-02-22T07:18:42.219Z,999.23
2017-02-22T07:19:07.849Z,999.26
2017-02-22T07:19:33.397Z,999.21
2017-02-22T07:19:58.949Z,999.22
2017-02-22T07:20:24.488Z,999.25
2017-02-22T07:20:50.026Z,999.28
2017-02-22T07:21:15.628Z,999.31
2017-02-22T07:21:41.250Z,999.22
2017-02-22T07:22:06.811Z,999.25
2017-02-22T07:22:32.371Z,999.29
2017-02-22T07:22:57.938Z,999.34
2017-02-22T07:23:23.502Z,999.38
2017-02-22T07:23:49.071Z,999.36
2017-02-22T07:24:14.651Z,999.31
2017-02-22T07:24:40.276Z,999.3
2017-02-22T07:25:05.777Z,999.29
2017-02-22T07:25:31.352Z,999.36
2017-02-22T07:25:56.903Z,999.3
2017-02-22T07:26:22.465Z,999.34
2017-02-22T07:26:48.001Z,999.16
2017-02-22T07:27:13.576Z,999.34
2017-02-22T07:27:39.155Z,999.28
2017-02-22T07:28:04.718Z,999.3
2017-02-22T07:28:30.268Z,999.27
2017-02-22T07:28:55.834Z,999.42
2017-02-22T07:29:21.410Z,999.4
2017-02-22T07:30:25.031Z,999.43
2017-02-22T07:30:50.606Z,999.45
2017-02-22T07:31:16.162Z,999.36
2017-02-22T07:31:41.722Z,999.35
2017-02-22T07:32:07.251Z,999.35
2017-02-22T07:32:32.810Z,999.28
2017-02-22T07:32:58.375Z,999.32
2017-02-22T07:33:23.934Z,999.33
2017-02-22T07:33:49.524Z,999.18
2017-02-22T07:34:15.081Z,999.33
2017-02-22T07:34:40.650Z,999.32
2017-02-22T07:35:06.214Z,999.38
2017-02-22T07:35:31.791Z,999.35
2017-02-22T07:35:57.375Z,999.23
2017-02-22T07:36:22.996Z,999.3
2017-02-22T07:36:48.554Z,999.29
2017-02-22T07:37:14.100Z,999.31
2017-02-22T07:37:39.735Z,999.23
2017-02-22T07:38:05.289Z,999.29
2017-02-22T07:38:30.846Z,999.3
2017-02-22T07:38:56.394Z,999.31
2017-02-22T07:39:22.095Z,999.33
2017-02-22T07:39:47.855Z,999.34
2017-02-22T07:40:13.518Z,999.38
2017-02-22T07:40:39.059Z,999.46
2017-02-22T07:41:04.652Z,999.37
2017-02-22T07:41:30.199Z,999.3
2017-02-22T07:41:55.840Z,999.41
2017-02-22T07:42:21.379Z,999.31
2017-02-22T07:42:46.916Z,999.26
2017-02-22T07:43:12.567Z,999.32
2017-02-22T07:43:38.211Z,999.34
2017-02-22T07:44:03.780Z,999.31
2017-02-22T07:44:29.372Z,999.24
2017-02-22T07:44:54.996Z,999.36
2017-02-22T07:45:20.559Z,999.31
2017-02-22T07:45:46.132Z,999.23
2017-02-22T07:46:11.782Z,999.18
2017-02-22T07:46:37.337Z,999.26
2017-02-22T07:47:02.879Z,999.19
2017-02-22T07:47:28.443Z,999.24
2017-02-22T07:47:54.009Z,999.19
2017-02-22T07:48:19.633Z,999.18
2017-02-22T07:48:45.169Z,999.23
2017-02-22T07:49:10.741Z,999.09
2017-02-22T07:49:36.296Z,999.17
2017-02-22T07:50:01.930Z,999.22
2017-02-22T07:50:27.497Z,999.15
2017-02-22T07:50:53.046Z,999.15
2017-02-22T07:51:18.612Z,999.16
2017-02-22T07:51:44.235Z,999.15
2017-02-22T07:52:09.776Z,999.25
2017-02-22T07:52:35.571Z,999.29
2017-02-22T07:53:01.159Z,999.28
2017-02-22T07:53:26.683Z,999.15
2017-02-22T07:53:52.254Z,999.07
2017-02-22T07:54:17.808Z,999.09
2017-02-22T07:54:43.403Z,999.03
2017-02-22T07:55:08.966Z,999.16
2017-02-22T07:55:34.528Z,999.17
2017-02-22T07:56:00.107Z,999.23
2017-02-22T07:56:25.672Z,999.18
2017-02-22T07:56:51.236Z,999.23
2017-02-22T07:57:16.820Z,999.19
2017-02-22T07:57:42.529Z,999.21
2017-02-22T07:58:08.098Z,999.19
2017-02-22T07:58:33.650Z,999.15
2017-02-22T07:58:59.274Z,999.24
2017-02-22T07:59:24.861Z,999.28
2017-02-22T07:59:50.439Z,999.29
2017-02-22T08:00:15.982Z,999.18
2017-02-22T08:00:41.527Z,999.26
2017-02-22T08:01:07.063Z,999.22
2017-02-22T08:01:32.610Z,999.17
2017-02-22T08:01:58.158Z,999.21
2017-02-22T08:02:23.733Z,999.21
2017-02-22T08:02:49.308Z,999.16
2017-02-22T08:03:14.896Z,999.07
2017-02-22T08:03:40.475Z,999.13
2017-02-22T08:04:06.188Z,999.17
2017-02-22T08:04:31.856Z,999.17
2017-02-22T08:04:57.389Z,999.07
2017-02-22T08:05:22.928Z,999.16
2017-02-22T08:05:48.460Z,999.17
2017-02-22T08:06:14.009Z,999.13
2017-02-22T08:06:39.553Z,999.15
2017-02-22T08:07:05.118Z,999.11
2017-02-22T08:07:30.693Z,999.09
2017-02-22T08:07:56.251Z,999.15
2017-02-22T08:08:21.785Z,999.19
2017-02-22T08:08:47.367Z,999.16
2017-02-22T08:09:13.034Z,999.13
2017-02-22T08:09:38.577Z,999.11
2017-02-22T08:10:04.120Z,999.04
2017-02-22T08:10:29.682Z,999.15
2017-02-22T08:10:55.229Z,999.08
2017-02-22T08:11:20.783Z,998.99
2017-02-22T08:11:46.388Z,999.16
2017-02-22T08:12:11.970Z,999.15
2017-02-22T08:12:37.609Z,999.03
2017-02-22T08:13:03.163Z,999.15
2017-02-22T08:13:28.723Z,999.09
2017-02-22T08:13:54.263Z,999.07
2017-02-22T08:14:19.812Z,999.16
2017-02-22T08:14:45.400Z,999.2
2017-02-22T08:15:11.020Z,999.07
2017-02-22T08:15:36.546Z,999.19
2017-02-22T08:16:02.103Z,999.09
2017-02-22T08:16:27.766Z,999.08
2017-02-22T08:16:53.345Z,999.15
2017-02-22T08:17:18.885Z,999.13
2017-02-22T08:17:44.453Z,999.24
2017-02-22T08:18:10.009Z,999.11
2017-02-22T08:18:35.587Z,999.08
2017-02-22T08:19:01.125Z,999.07
2017-02-22T08:19:26.668Z,999.25
2017-02-22T08:19:52.223Z,999.07
2017-02-22T08:20:17.933Z,999.17
2017-02-22T08:20:43.476Z,999.2
2017-02-22T08:21:09.034Z,999.11
2017-02-22T08:22:07.361Z,999.27
2017-02-22T08:22:32.924Z,999.24
2017-02-22T08:22:58.503Z,999.27
2017-02-22T08:24:01.820Z,999.18
2017-02-22T08:24:27.407Z,999.28
2017-02-22T08:24:52.963Z,999.24
2017-02-22T08:25:18.501Z,999.25
2017-02-22T08:25:44.165Z,999.23
2017-02-22T08:26:09.723Z,999.29
2017-02-22T08:26:35.295Z,999.3
2017-02-22T08:27:00.961Z,999.29
2017-02-22T08:27:26.632Z,999.28
2017-02-22T08:27:52.224Z,999.27
2017-02-22T08:28:17.781Z,999.22
2017-02-22T08:28:43.333Z,999.21
2017-02-22T08:29:08.892Z,999.27
2017-02-22T08:29:34.484Z,999.23
2017-02-22T08:30:00.128Z,999.06
2017-02-22T08:30:25.676Z,999.24
2017-02-22T08:30:51.444Z,999.24
2017-02-22T08:31:17.003Z,999.23
2017-02-22T08:31:42.627Z,999.19
2017-02-22T08:32:08.198Z,999.18
2017-02-22T08:32:33.750Z,999.24
2017-02-22T08:32:59.322Z,999.26
2017-02-22T08:33:24.878Z,999.25
2017-02-22T08:33:50.432Z,999.29
2017-02-22T08:34:15.994Z,999.28
2017-02-22T08:34:41.561Z,999.15
2017-02-22T08:35:07.172Z,999.16
2017-02-22T08:35:32.759Z,999.23
2017-02-22T08:35:58.320Z,999.23
2017-02-22T08:36:23.871Z,999.26
2017-02-22T08:36:49.415Z,999.27
2017-02-22T08:37:14.999Z,999.19
2017-02-22T08:37:40.571Z,999.31
2017-02-22T08:38:06.142Z,999.23
2017-02-22T08:38:31.810Z,999.12
2017-02-22T08:38:57.346Z,999.2
2017-02-22T08:40:00.812Z,999.21
2017-02-22T08:40:26.387Z,999.16
2017-02-22T08:40:51.969Z,999.22
2017-02-22T08:41:17.527Z,999.28
2017-02-22T08:41:43.158Z,999.21
2017-02-22T08:42:08.721Z,999.25
2017-02-22T08:42:34.283Z,999.25
2017-02-22T08:42:59.856Z,999.21
2017-02-22T08:43:25.531Z,999.28
2017-02-22T08:43:51.070Z,999.26
2017-02-22T08:44:16.819Z,999.22
2017-02-22T08:44:42.390Z,999.22
2017-02-22T08:45:07.951Z,999.27
2017-02-22T08:45:33.487Z,999.25
2017-02-22T08:45:59.045Z,999.27
2017-02-22T08:46:24.605Z,999.23
2017-02-22T08:46:50.177Z,999.26
2017-02-22T08:47:15.734Z,999.26
2017-02-22T08:47:41.303Z,999.19
2017-02-22T08:48:06.941Z,999.27
2017-02-22T08:48:32.526Z,999.18
2017-02-22T08:48:58.079Z,999.31
2017-02-22T08:49:23.655Z,999.2
2017-02-22T08:49:49.304Z,999.18
2017-02-22T08:50:14.866Z,999.29
2017-02-22T08:50:40.431Z,999.27
2017-02-22T08:51:06.166Z,999.28
2017-02-22T08:51:31.732Z,999.31
2017-02-22T08:51:57.310Z,999.27
2017-02-22T08:52:22.888Z,999.27
2017-02-22T08:52:48.463Z,999.22
2017-02-22T08:53:14.020Z,999.17
2017-02-22T08:53:39.593Z,999.15
2017-02-22T08:54:58.117Z,999.23
2017-02-22T08:55:23.671Z,999.28
2017-02-22T08:55:49.314Z,999.3
2017-02-22T08:56:14.859Z,999.32
2017-02-22T08:56:40.418Z,999.23
2017-02-22T08:57:06.012Z,999.17
2017-02-22T08:57:31.574Z,999.23
2017-02-22T08:57:57.130Z,999.21
2017-02-22T08:58:22.775Z,999.25
2017-02-22T08:58:48.368Z,999.14
2017-02-22T08:59:13.923Z,999.13
2017-02-22T08:59:39.482Z,999.09
2017-02-22T09:00:05.044Z,999.21
2017-02-22T09:00:30.614Z,999.2
2017-02-22T09:00:56.192Z,999.31
2017-02-22T09:01:21.772Z,999.21
2017-02-22T09:01:47.340Z,999.32
2017-02-22T09:02:12.906Z,999.29
2017-02-22T09:02:38.575Z,999.27
2017-02-22T09:03:04.122Z,999.4
2017-02-22T09:03:30.610Z,999.3
2017-02-22T09:03:55.242Z,999.28
2017-02-22T09:04:20.796Z,999.25
2017-02-22T09:04:46.364Z,999.25
2017-02-22T09:05:11.920Z,999.24
2017-02-22T09:05:37.510Z,999.39
2017-02-22T09:06:03.129Z,999.34
2017-02-22T09:06:28.678Z,999.47
2017-02-22T09:06:54.270Z,999.41
2017-02-22T09:07:19.864Z,999.47
2017-02-22T09:07:45.490Z,999.42
2017-02-22T09:08:11.063Z,999.42
2017-02-22T09:08:36.602Z,999.35
2017-02-22T09:09:02.182Z,999.43
2017-02-22T09:09:27.744Z,999.36
2017-02-22T09:09:53.300Z,999.15
2017-02-22T09:10:18.873Z,999.43
2017-02-22T09:10:44.412Z,999.31
2017-02-22T09:11:09.981Z,999.56
2017-02-22T09:11:35.558Z,999.51
2017-02-22T09:12:49.335Z,999.45
2017-02-22T09:13:14.918Z,999.55
2017-02-22T09:13:40.481Z,999.55
2017-02-22T09:14:06.219Z,999.55
2017-02-22T09:14:31.769Z,999.46
2017-02-22T09:14:57.325Z,999.43
2017-02-22T09:15:22.941Z,999.63
2017-02-22T09:15:48.627Z,999.51
2017-02-22T09:16:14.161Z,999.51
2017-02-22T09:16:39.777Z,999.62
2017-02-22T09:17:05.322Z,999.47
2017-02-22T09:17:30.883Z,999.53
2017-02-22T09:17:56.525Z,999.44
2017-02-22T09:18:22.191Z,999.58
2017-02-22T09:18:47.730Z,999.57
2017-02-22T09:19:13.343Z,999.64
2017-02-22T09:19:38.990Z,999.66
2017-02-22T09:20:04.542Z,999.55
2017-02-22T09:20:30.088Z,999.58
2017-02-22T09:20:55.654Z,999.56
2017-02-22T09:21:21.202Z,999.6
2017-02-22T09:21:46.794Z,999.58
2017-02-22T09:22:12.367Z,999.55
2017-02-22T09:22:37.906Z,999.53
2017-02-22T09:23:03.471Z,999.52
2017-02-22T09:23:29.010Z,999.49
2017-02-22T09:23:54.570Z,999.4
2017-02-22T09:24:20.138Z,999.62
2017-02-22T09:24:45.694Z,999.52
2017-02-22T09:25:11.240Z,999.46
2017-02-22T09:25:36.976Z,999.47
2017-02-22T09:26:02.545Z,999.49
2017-02-22T09:26:28.116Z,999.43